APL New Jersey — A8NM6 — position and weather

sailwx.info

Track history (hours):
 
Tides and Currents Weather Stations Pressure Air Temp Water Temp Dewpoint Dewpoint Depression Visibility Wind Speed Wind Dir Waves Ship Positions

APL New Jersey

Last reported at 2016-Feb-02 16:31 UTC. Time now 2016-Feb-14 08:06 UTC.
Position N 29°52' E 122°50'.
Warning: this ship's position is 11 days out of date.

Length 293 m; draft 11.4 m.

Type: Cargo ship. MMSI: 636013522.

Date/timePositionNaut miles runAvg speedWind from/ knotsBaromVisibWave heightAir tempDewpointWater temp
2016-Feb-02 16:31N 29°52' E 122°50'1817.9
2016-Feb-02 15:31N 29°40' E 122°34'1515.8
2016-Feb-02 14:33N 29°45' E 122°18'1111.2
2016-Feb-02 13:33N 29°54' E 122°10'1514.6
2016-Feb-02 12:33N 29°57' E 121°54'2 0.3
2016-Feb-02 06:33N 29°56' E 121°52'0 0.0
2016-Feb-02 05:33N 29°56' E 121°52'0 0.0
2016-Feb-02 02:03N 29°56' E 121°52'0 0.0
2016-Feb-02 01:33N 29°56' E 121°52'0 0.0
2016-Feb-01 23:21N 29°56' E 121°52'0 0.0
2016-Feb-01 22:15N 29°56' E 121°52'0 0.0
2016-Feb-01 19:21N 29°56' E 121°52'0 0.0
2016-Feb-01 18:33N 29°56' E 121°52'0 0.0
2016-Feb-01 16:03N 29°56' E 121°52'0 0.0
2016-Feb-01 15:33N 29°56' E 121°52'0 0.0
2016-Feb-01 14:33N 29°56' E 121°52'0 0.0
2016-Feb-01 13:25N 29°56' E 121°52'3 3.6
2016-Feb-01 12:34N 29°57' E 121°56'1110.9
2016-Feb-01 11:33N 29°55' E 122°08'1211.4
2016-Feb-01 10:31N 29°46' E 122°17'9 9.1
2016-Feb-01 09:30N 29°43' E 122°27'8 8.1
2016-Feb-01 08:33N 29°41' E 122°36'1211.7
2016-Feb-01 07:32N 29°50' E 122°45'9912.4
2016-Jan-31 23:33N 31°17' E 121°50'1312.6
2016-Jan-31 22:33N 31°22' E 121°37'2 1.0
2016-Jan-31 20:25N 31°23' E 121°34'0 0.0
2016-Jan-31 19:31N 31°23' E 121°34'0 0.0
2016-Jan-31 18:22N 31°23' E 121°34'0 0.0
2016-Jan-31 17:28N 31°23' E 121°34'0 0.0
2016-Jan-31 16:31N 31°23' E 121°34'0 0.0
2016-Jan-31 15:31N 31°23' E 121°34'0 0.0
2016-Jan-31 14:22N 31°23' E 121°34'0 0.0
2016-Jan-31 13:31N 31°23' E 121°34'0 0.0
2016-Jan-31 12:28N 31°23' E 121°34'0 0.0
2016-Jan-31 11:25N 31°23' E 121°34'0 0.0
2016-Jan-31 10:25N 31°23' E 121°34'0 0.0
2016-Jan-31 09:13N 31°23' E 121°34'0 0.0
2016-Jan-31 08:13N 31°23' E 121°34'0 0.0
2016-Jan-31 07:16N 31°23' E 121°34'0 0.0
2016-Jan-31 06:22N 31°23' E 121°34'0 0.0
2016-Jan-31 05:25N 31°23' E 121°34'0 0.0
2016-Jan-31 04:07N 31°23' E 121°34'0 0.0
2016-Jan-31 03:13N 31°23' E 121°34'0 0.0
2016-Jan-31 02:31N 31°23' E 121°34'0 0.0
2016-Jan-31 01:31N 31°23' E 121°34'0 0.0
2016-Jan-31 00:19N 31°23' E 121°34'0 0.0
2016-Jan-30 23:31N 31°23' E 121°34'0 0.0
2016-Jan-30 21:31N 31°23' E 121°34'0 0.0
2016-Jan-30 20:32N 31°23' E 121°34'0 0.5
2016-Jan-30 19:33N 31°23' E 121°34'6 6.2
2016-Jan-30 18:32N 31°20' E 121°41'1010.1
2016-Jan-30 17:32N 31°16' E 121°52'1210.6
2016-Jan-30 16:21N 31°14' E 122°06'  
Track history (hours):
 
Tides and Currents Weather Stations Pressure Air Temp Water Temp Dewpoint Dewpoint Depression Visibility Wind Speed Wind Dir Waves Ship Positions

APL New Jersey

Last reported at 2016-Feb-02 16:31 UTC. Time now 2016-Feb-14 08:06 UTC.
Position N 29°52' E 122°50'.
Warning: this ship's position is 11 days out of date.

Length 293 m; draft 11.4 m.

Type: Cargo ship. MMSI: 636013522.

Date/timePositionNaut miles runAvg speedWind from/ knotsBaromVisibWave heightAir tempDewpointWater temp
2016-Feb-02 16:31N 29°52' E 122°50'1817.9
2016-Feb-02 15:31N 29°40' E 122°34'1515.8
2016-Feb-02 14:33N 29°45' E 122°18'1111.2
2016-Feb-02 13:33N 29°54' E 122°10'1514.6
2016-Feb-02 12:33N 29°57' E 121°54'2 0.3
2016-Feb-02 06:33N 29°56' E 121°52'0 0.0
2016-Feb-02 05:33N 29°56' E 121°52'0 0.0
2016-Feb-02 02:03N 29°56' E 121°52'0 0.0
2016-Feb-02 01:33N 29°56' E 121°52'0 0.0
2016-Feb-01 23:21N 29°56' E 121°52'0 0.0
2016-Feb-01 22:15N 29°56' E 121°52'0 0.0
2016-Feb-01 19:21N 29°56' E 121°52'0 0.0
2016-Feb-01 18:33N 29°56' E 121°52'0 0.0
2016-Feb-01 16:03N 29°56' E 121°52'0 0.0
2016-Feb-01 15:33N 29°56' E 121°52'0 0.0
2016-Feb-01 14:33N 29°56' E 121°52'0 0.0
2016-Feb-01 13:25N 29°56' E 121°52'3 3.6
2016-Feb-01 12:34N 29°57' E 121°56'1110.9
2016-Feb-01 11:33N 29°55' E 122°08'1211.4
2016-Feb-01 10:31N 29°46' E 122°17'9 9.1
2016-Feb-01 09:30N 29°43' E 122°27'8 8.1
2016-Feb-01 08:33N 29°41' E 122°36'1211.7
2016-Feb-01 07:32N 29°50' E 122°45'9912.4
2016-Jan-31 23:33N 31°17' E 121°50'1312.6
2016-Jan-31 22:33N 31°22' E 121°37'2 1.0
2016-Jan-31 20:25N 31°23' E 121°34'0 0.0
2016-Jan-31 19:31N 31°23' E 121°34'0 0.0
2016-Jan-31 18:22N 31°23' E 121°34'0 0.0
2016-Jan-31 17:28N 31°23' E 121°34'0 0.0
2016-Jan-31 16:31N 31°23' E 121°34'0 0.0
2016-Jan-31 15:31N 31°23' E 121°34'0 0.0
2016-Jan-31 14:22N 31°23' E 121°34'0 0.0
2016-Jan-31 13:31N 31°23' E 121°34'0 0.0
2016-Jan-31 12:28N 31°23' E 121°34'0 0.0
2016-Jan-31 11:25N 31°23' E 121°34'0 0.0
2016-Jan-31 10:25N 31°23' E 121°34'0 0.0
2016-Jan-31 09:13N 31°23' E 121°34'0 0.0
2016-Jan-31 08:13N 31°23' E 121°34'0 0.0
2016-Jan-31 07:16N 31°23' E 121°34'0 0.0
2016-Jan-31 06:22N 31°23' E 121°34'0 0.0
2016-Jan-31 05:25N 31°23' E 121°34'0 0.0
2016-Jan-31 04:07N 31°23' E 121°34'0 0.0
2016-Jan-31 03:13N 31°23' E 121°34'0 0.0
2016-Jan-31 02:31N 31°23' E 121°34'0 0.0
2016-Jan-31 01:31N 31°23' E 121°34'0 0.0
2016-Jan-31 00:19N 31°23' E 121°34'0 0.0
2016-Jan-30 23:31N 31°23' E 121°34'0 0.0
2016-Jan-30 21:31N 31°23' E 121°34'0 0.0
2016-Jan-30 20:32N 31°23' E 121°34'0 0.5
2016-Jan-30 19:33N 31°23' E 121°34'6 6.2
2016-Jan-30 18:32N 31°20' E 121°41'1010.1
2016-Jan-30 17:32N 31°16' E 121°52'1210.6
2016-Jan-30 16:21N 31°14' E 122°06'  

Dump ship's entire track history